Wasco, California
Current Conditions -  °F | °C
As of 12:54 AM on Saturday 22 Nov 2014 (Local Time) from KBFL Reporting Station
Haze Haze  
Wind Chill: 51°   Ceiling: 2200
Heat Index: 51°   Visibility: 6mi
Dew Point: 45°   Wind: 3mph
Humidity: 80%   Direction: 110°ESE
Pressure: 30.19"   Gusts: NA
Location:  35.59°N, 119.33°W
Report Text: KBFL 220854Z AUTO 11003KT 6SM HZ OVC022 11/07 A3019 RMK AO2 SLP221 T01060072 51006
Loading
Personal Weather Stations






























Interactive Weather Map New forecast layout! Learn more

10-Day Weather Forecast

Advertisements
Track Severe Weather on mobile